sensor_id;sensor_type;location;lat;lon;timestamp;P1;durP1;ratioP1;P2;durP2;ratioP2
42200;SDS011;27869;51.442;7.540;2024-02-15T00:02:14;8.48;;;2.47;;
42200;SDS011;27869;51.442;7.540;2024-02-15T00:04:43;8.57;;;2.70;;
42200;SDS011;27869;51.442;7.540;2024-02-15T00:07:09;8.20;;;2.60;;
42200;SDS011;27869;51.442;7.540;2024-02-15T00:09:37;10.25;;;2.60;;
42200;SDS011;27869;51.442;7.540;2024-02-15T00:12:04;7.47;;;2.42;;
42200;SDS011;27869;51.442;7.540;2024-02-15T00:14:31;8.68;;;2.33;;
42200;SDS011;27869;51.442;7.540;2024-02-15T00:16:58;10.10;;;2.95;;
42200;SDS011;27869;51.442;7.540;2024-02-15T00:19:25;8.88;;;2.78;;
42200;SDS011;27869;51.442;7.540;2024-02-15T00:21:56;8.50;;;2.70;;
42200;SDS011;27869;51.442;7.540;2024-02-15T00:24:23;9.05;;;2.80;;
42200;SDS011;27869;51.442;7.540;2024-02-15T00:26:50;7.50;;;2.22;;
42200;SDS011;27869;51.442;7.540;2024-02-15T00:29:18;7.43;;;2.33;;
42200;SDS011;27869;51.442;7.540;2024-02-15T00:31:45;8.27;;;2.38;;
42200;SDS011;27869;51.442;7.540;2024-02-15T00:34:14;6.65;;;2.22;;
42200;SDS011;27869;51.442;7.540;2024-02-15T00:36:41;5.78;;;2.00;;
42200;SDS011;27869;51.442;7.540;2024-02-15T00:39:10;5.85;;;2.10;;
42200;SDS011;27869;51.442;7.540;2024-02-15T00:41:38;5.20;;;1.88;;
42200;SDS011;27869;51.442;7.540;2024-02-15T00:44:07;7.03;;;2.17;;
42200;SDS011;27869;51.442;7.540;2024-02-15T00:46:35;7.03;;;2.00;;
42200;SDS011;27869;51.442;7.540;2024-02-15T00:49:02;6.57;;;2.00;;
42200;SDS011;27869;51.442;7.540;2024-02-15T00:51:31;5.35;;;1.80;;
42200;SDS011;27869;51.442;7.540;2024-02-15T00:53:58;6.57;;;2.20;;
42200;SDS011;27869;51.442;7.540;2024-02-15T00:56:26;6.57;;;2.00;;
42200;SDS011;27869;51.442;7.540;2024-02-15T00:58:55;5.22;;;1.83;;
42200;SDS011;27869;51.442;7.540;2024-02-15T01:01:22;7.40;;;2.15;;
42200;SDS011;27869;51.442;7.540;2024-02-15T01:03:49;5.78;;;1.73;;
42200;SDS011;27869;51.442;7.540;2024-02-15T01:06:15;4.43;;;1.75;;
42200;SDS011;27869;51.442;7.540;2024-02-15T01:08:42;5.53;;;2.00;;
42200;SDS011;27869;51.442;7.540;2024-02-15T01:11:09;6.30;;;2.17;;
42200;SDS011;27869;51.442;7.540;2024-02-15T01:13:37;6.63;;;2.00;;
42200;SDS011;27869;51.442;7.540;2024-02-15T01:16:04;6.10;;;2.13;;
42200;SDS011;27869;51.442;7.540;2024-02-15T01:18:32;6.70;;;1.90;;
42200;SDS011;27869;51.442;7.540;2024-02-15T01:20:58;8.40;;;2.20;;
42200;SDS011;27869;51.442;7.540;2024-02-15T01:23:25;6.00;;;2.20;;
42200;SDS011;27869;51.442;7.540;2024-02-15T01:25:52;6.57;;;1.95;;
42200;SDS011;27869;51.442;7.540;2024-02-15T01:28:19;6.65;;;2.20;;
42200;SDS011;27869;51.442;7.540;2024-02-15T01:30:48;7.15;;;1.92;;
42200;SDS011;27869;51.442;7.540;2024-02-15T01:33:15;6.50;;;2.00;;
42200;SDS011;27869;51.442;7.540;2024-02-15T01:35:42;6.57;;;2.00;;
42200;SDS011;27869;51.442;7.540;2024-02-15T01:38:09;7.55;;;2.00;;
42200;SDS011;27869;51.442;7.540;2024-02-15T01:40:36;7.75;;;2.15;;
42200;SDS011;27869;51.442;7.540;2024-02-15T01:43:04;7.30;;;2.28;;
42200;SDS011;27869;51.442;7.540;2024-02-15T01:45:31;9.93;;;2.33;;
42200;SDS011;27869;51.442;7.540;2024-02-15T01:47:59;6.80;;;2.00;;
42200;SDS011;27869;51.442;7.540;2024-02-15T01:50:28;6.45;;;2.10;;
42200;SDS011;27869;51.442;7.540;2024-02-15T01:52:57;8.48;;;2.58;;
42200;SDS011;27869;51.442;7.540;2024-02-15T01:55:25;10.32;;;3.08;;
42200;SDS011;27869;51.442;7.540;2024-02-15T01:57:52;9.40;;;2.60;;
42200;SDS011;27869;51.442;7.540;2024-02-15T02:00:19;8.52;;;2.63;;
42200;SDS011;27869;51.442;7.540;2024-02-15T02:02:46;11.15;;;3.15;;
42200;SDS011;27869;51.442;7.540;2024-02-15T02:05:16;11.45;;;2.97;;
42200;SDS011;27869;51.442;7.540;2024-02-15T02:07:43;7.25;;;2.63;;
42200;SDS011;27869;51.442;7.540;2024-02-15T02:10:10;10.25;;;2.80;;
42200;SDS011;27869;51.442;7.540;2024-02-15T02:12:39;9.70;;;2.88;;
42200;SDS011;27869;51.442;7.540;2024-02-15T02:15:07;11.40;;;3.10;;
42200;SDS011;27869;51.442;7.540;2024-02-15T02:17:36;11.60;;;3.60;;
42200;SDS011;27869;51.442;7.540;2024-02-15T02:20:05;11.40;;;3.60;;
42200;SDS011;27869;51.442;7.540;2024-02-15T02:22:34;10.50;;;3.38;;
42200;SDS011;27869;51.442;7.540;2024-02-15T02:25:03;10.70;;;3.22;;
42200;SDS011;27869;51.442;7.540;2024-02-15T02:27:33;9.95;;;3.30;;
42200;SDS011;27869;51.442;7.540;2024-02-15T02:30:02;10.38;;;3.20;;
42200;SDS011;27869;51.442;7.540;2024-02-15T02:32:32;9.50;;;2.97;;
42200;SDS011;27869;51.442;7.540;2024-02-15T02:34:59;9.13;;;2.85;;
42200;SDS011;27869;51.442;7.540;2024-02-15T02:37:26;11.95;;;2.90;;
42200;SDS011;27869;51.442;7.540;2024-02-15T02:39:53;9.55;;;2.70;;
42200;SDS011;27869;51.442;7.540;2024-02-15T02:42:21;8.05;;;2.78;;
42200;SDS011;27869;51.442;7.540;2024-02-15T02:44:48;7.63;;;2.75;;
42200;SDS011;27869;51.442;7.540;2024-02-15T02:47:15;10.68;;;2.63;;
42200;SDS011;27869;51.442;7.540;2024-02-15T02:49:42;9.20;;;2.88;;
42200;SDS011;27869;51.442;7.540;2024-02-15T02:52:09;9.05;;;2.80;;
42200;SDS011;27869;51.442;7.540;2024-02-15T02:54:36;9.43;;;2.90;;
42200;SDS011;27869;51.442;7.540;2024-02-15T02:57:03;10.95;;;2.70;;
42200;SDS011;27869;51.442;7.540;2024-02-15T02:59:34;8.20;;;2.97;;
42200;SDS011;27869;51.442;7.540;2024-02-15T03:02:01;11.00;;;2.85;;
42200;SDS011;27869;51.442;7.540;2024-02-15T03:04:29;11.20;;;3.22;;
42200;SDS011;27869;51.442;7.540;2024-02-15T03:06:57;10.20;;;2.88;;
42200;SDS011;27869;51.442;7.540;2024-02-15T03:09:24;10.38;;;2.97;;
42200;SDS011;27869;51.442;7.540;2024-02-15T03:11:54;8.65;;;2.78;;
42200;SDS011;27869;51.442;7.540;2024-02-15T03:14:22;9.05;;;2.90;;
42200;SDS011;27869;51.442;7.540;2024-02-15T03:16:51;9.20;;;3.10;;
42200;SDS011;27869;51.442;7.540;2024-02-15T03:19:20;9.90;;;3.25;;
42200;SDS011;27869;51.442;7.540;2024-02-15T03:21:48;10.73;;;3.60;;
42200;SDS011;27869;51.442;7.540;2024-02-15T03:24:15;13.00;;;3.50;;
42200;SDS011;27869;51.442;7.540;2024-02-15T03:26:42;12.73;;;3.60;;
42200;SDS011;27869;51.442;7.540;2024-02-15T03:29:09;11.07;;;3.72;;
42200;SDS011;27869;51.442;7.540;2024-02-15T03:31:36;11.00;;;3.25;;
42200;SDS011;27869;51.442;7.540;2024-02-15T03:34:04;11.02;;;3.78;;
42200;SDS011;27869;51.442;7.540;2024-02-15T03:36:31;11.95;;;3.83;;
42200;SDS011;27869;51.442;7.540;2024-02-15T03:38:58;11.55;;;3.58;;
42200;SDS011;27869;51.442;7.540;2024-02-15T03:41:27;13.55;;;3.95;;
42200;SDS011;27869;51.442;7.540;2024-02-15T03:43:57;12.55;;;4.05;;
42200;SDS011;27869;51.442;7.540;2024-02-15T03:46:25;9.98;;;3.78;;
42200;SDS011;27869;51.442;7.540;2024-02-15T03:48:53;12.55;;;3.60;;
42200;SDS011;27869;51.442;7.540;2024-02-15T03:51:23;10.88;;;3.65;;
42200;SDS011;27869;51.442;7.540;2024-02-15T03:53:50;12.10;;;4.15;;
42200;SDS011;27869;51.442;7.540;2024-02-15T03:56:17;12.30;;;3.53;;
42200;SDS011;27869;51.442;7.540;2024-02-15T03:58:46;13.07;;;3.95;;
42200;SDS011;27869;51.442;7.540;2024-02-15T04:01:13;10.05;;;3.72;;
42200;SDS011;27869;51.442;7.540;2024-02-15T04:03:40;11.77;;;3.78;;
42200;SDS011;27869;51.442;7.540;2024-02-15T04:06:07;13.18;;;3.78;;
42200;SDS011;27869;51.442;7.540;2024-02-15T04:08:37;12.38;;;4.10;;
42200;SDS011;27869;51.442;7.540;2024-02-15T04:11:04;10.20;;;3.80;;
42200;SDS011;27869;51.442;7.540;2024-02-15T04:13:32;13.35;;;4.10;;
42200;SDS011;27869;51.442;7.540;2024-02-15T04:15:59;12.85;;;4.07;;
42200;SDS011;27869;51.442;7.540;2024-02-15T04:18:26;11.38;;;4.28;;
42200;SDS011;27869;51.442;7.540;2024-02-15T04:20:57;11.75;;;4.22;;
42200;SDS011;27869;51.442;7.540;2024-02-15T04:23:24;11.77;;;3.72;;
42200;SDS011;27869;51.442;7.540;2024-02-15T04:25:52;11.95;;;3.67;;
42200;SDS011;27869;51.442;7.540;2024-02-15T04:28:19;12.73;;;3.22;;
42200;SDS011;27869;51.442;7.540;2024-02-15T04:30:46;11.48;;;3.53;;
42200;SDS011;27869;51.442;7.540;2024-02-15T04:33:13;11.85;;;3.47;;
42200;SDS011;27869;51.442;7.540;2024-02-15T04:35:41;11.90;;;3.22;;
42200;SDS011;27869;51.442;7.540;2024-02-15T04:38:08;9.20;;;3.40;;
42200;SDS011;27869;51.442;7.540;2024-02-15T04:40:35;10.70;;;3.17;;
42200;SDS011;27869;51.442;7.540;2024-02-15T04:43:05;12.95;;;3.22;;
42200;SDS011;27869;51.442;7.540;2024-02-15T04:48:00;10.93;;;2.95;;
42200;SDS011;27869;51.442;7.540;2024-02-15T04:50:28;9.48;;;2.53;;
42200;SDS011;27869;51.442;7.540;2024-02-15T04:52:55;11.55;;;3.13;;
42200;SDS011;27869;51.442;7.540;2024-02-15T04:55:22;9.88;;;2.72;;
42200;SDS011;27869;51.442;7.540;2024-02-15T04:57:51;11.40;;;2.63;;
42200;SDS011;27869;51.442;7.540;2024-02-15T05:00:22;12.13;;;2.67;;
42200;SDS011;27869;51.442;7.540;2024-02-15T05:02:51;7.38;;;2.35;;
42200;SDS011;27869;51.442;7.540;2024-02-15T05:05:18;8.50;;;2.40;;
42200;SDS011;27869;51.442;7.540;2024-02-15T05:07:46;9.60;;;2.30;;
42200;SDS011;27869;51.442;7.540;2024-02-15T05:10:15;9.93;;;2.10;;
42200;SDS011;27869;51.442;7.540;2024-02-15T05:12:42;6.93;;;1.95;;
42200;SDS011;27869;51.442;7.540;2024-02-15T05:15:09;7.55;;;2.20;;
42200;SDS011;27869;51.442;7.540;2024-02-15T05:17:38;6.47;;;1.92;;
42200;SDS011;27869;51.442;7.540;2024-02-15T05:20:07;8.73;;;2.00;;
42200;SDS011;27869;51.442;7.540;2024-02-15T05:22:37;7.70;;;1.98;;
42200;SDS011;27869;51.442;7.540;2024-02-15T05:25:05;6.38;;;1.90;;
42200;SDS011;27869;51.442;7.540;2024-02-15T05:27:33;5.97;;;1.83;;
42200;SDS011;27869;51.442;7.540;2024-02-15T05:30:01;7.18;;;1.73;;
42200;SDS011;27869;51.442;7.540;2024-02-15T05:32:32;8.82;;;2.10;;
42200;SDS011;27869;51.442;7.540;2024-02-15T05:35:04;6.53;;;1.50;;
42200;SDS011;27869;51.442;7.540;2024-02-15T05:37:33;6.22;;;1.55;;
42200;SDS011;27869;51.442;7.540;2024-02-15T05:40:00;7.70;;;1.88;;
42200;SDS011;27869;51.442;7.540;2024-02-15T05:42:27;6.30;;;1.45;;
42200;SDS011;27869;51.442;7.540;2024-02-15T05:44:54;4.43;;;1.40;;
42200;SDS011;27869;51.442;7.540;2024-02-15T05:47:21;7.03;;;1.52;;
42200;SDS011;27869;51.442;7.540;2024-02-15T05:49:49;5.13;;;1.40;;
42200;SDS011;27869;51.442;7.540;2024-02-15T05:52:17;5.47;;;1.35;;
42200;SDS011;27869;51.442;7.540;2024-02-15T05:54:45;5.63;;;1.33;;
42200;SDS011;27869;51.442;7.540;2024-02-15T05:57:12;6.53;;;1.58;;
42200;SDS011;27869;51.442;7.540;2024-02-15T05:59:39;4.65;;;1.20;;
42200;SDS011;27869;51.442;7.540;2024-02-15T06:02:06;4.97;;;1.23;;
42200;SDS011;27869;51.442;7.540;2024-02-15T06:04:34;4.47;;;1.10;;
42200;SDS011;27869;51.442;7.540;2024-02-15T06:07:01;4.43;;;1.30;;
42200;SDS011;27869;51.442;7.540;2024-02-15T06:09:29;6.57;;;1.30;;
42200;SDS011;27869;51.442;7.540;2024-02-15T06:11:58;7.22;;;1.30;;
42200;SDS011;27869;51.442;7.540;2024-02-15T06:14:25;5.30;;;1.20;;
42200;SDS011;27869;51.442;7.540;2024-02-15T06:16:52;6.35;;;1.20;;
42200;SDS011;27869;51.442;7.540;2024-02-15T06:19:20;3.53;;;1.00;;
42200;SDS011;27869;51.442;7.540;2024-02-15T06:21:47;6.57;;;1.20;;
42200;SDS011;27869;51.442;7.540;2024-02-15T06:24:14;6.35;;;1.27;;
42200;SDS011;27869;51.442;7.540;2024-02-15T06:26:42;6.07;;;1.20;;
42200;SDS011;27869;51.442;7.540;2024-02-15T06:29:09;4.57;;;1.00;;
42200;SDS011;27869;51.442;7.540;2024-02-15T06:31:59;6.72;;;1.02;;
42200;SDS011;27869;51.442;7.540;2024-02-15T06:34:52;4.63;;;1.13;;
42200;SDS011;27869;51.442;7.540;2024-02-15T06:37:36;7.57;;;1.40;;
42200;SDS011;27869;51.442;7.540;2024-02-15T06:40:22;4.70;;;1.23;;
42200;SDS011;27869;51.442;7.540;2024-02-15T06:42:50;6.75;;;1.38;;
42200;SDS011;27869;51.442;7.540;2024-02-15T06:45:17;6.90;;;1.25;;
42200;SDS011;27869;51.442;7.540;2024-02-15T06:47:44;6.22;;;1.10;;
42200;SDS011;27869;51.442;7.540;2024-02-15T06:50:12;3.30;;;1.15;;
42200;SDS011;27869;51.442;7.540;2024-02-15T06:52:39;4.07;;;1.13;;
42200;SDS011;27869;51.442;7.540;2024-02-15T06:55:07;5.53;;;1.10;;
42200;SDS011;27869;51.442;7.540;2024-02-15T06:57:37;4.68;;;1.10;;
42200;SDS011;27869;51.442;7.540;2024-02-15T07:00:07;9.95;;;1.38;;
42200;SDS011;27869;51.442;7.540;2024-02-15T07:02:40;3.78;;;1.05;;
42200;SDS011;27869;51.442;7.540;2024-02-15T07:07:36;7.03;;;1.40;;
42200;SDS011;27869;51.442;7.540;2024-02-15T07:10:04;4.93;;;1.20;;
42200;SDS011;27869;51.442;7.540;2024-02-15T07:12:31;9.05;;;1.60;;
42200;SDS011;27869;51.442;7.540;2024-02-15T07:14:58;4.13;;;1.20;;
42200;SDS011;27869;51.442;7.540;2024-02-15T07:17:27;7.13;;;1.23;;
42200;SDS011;27869;51.442;7.540;2024-02-15T07:19:57;5.03;;;1.08;;
42200;SDS011;27869;51.442;7.540;2024-02-15T07:22:24;8.00;;;1.50;;
42200;SDS011;27869;51.442;7.540;2024-02-15T07:24:51;6.47;;;1.30;;
42200;SDS011;27869;51.442;7.540;2024-02-15T07:27:18;5.72;;;1.45;;
42200;SDS011;27869;51.442;7.540;2024-02-15T07:29:48;8.23;;;1.40;;
42200;SDS011;27869;51.442;7.540;2024-02-15T07:32:14;9.38;;;1.50;;
42200;SDS011;27869;51.442;7.540;2024-02-15T07:34:43;5.15;;;1.17;;
42200;SDS011;27869;51.442;7.540;2024-02-15T07:37:12;7.82;;;2.63;;
42200;SDS011;27869;51.442;7.540;2024-02-15T07:39:40;6.50;;;1.40;;
42200;SDS011;27869;51.442;7.540;2024-02-15T07:42:07;6.38;;;1.50;;
42200;SDS011;27869;51.442;7.540;2024-02-15T07:44:34;6.32;;;1.60;;
42200;SDS011;27869;51.442;7.540;2024-02-15T07:47:01;6.57;;;1.48;;
42200;SDS011;27869;51.442;7.540;2024-02-15T07:49:29;7.95;;;1.50;;
42200;SDS011;27869;51.442;7.540;2024-02-15T07:51:59;7.35;;;1.20;;
42200;SDS011;27869;51.442;7.540;2024-02-15T07:54:26;5.47;;;1.10;;
42200;SDS011;27869;51.442;7.540;2024-02-15T07:56:54;5.88;;;1.25;;
42200;SDS011;27869;51.442;7.540;2024-02-15T07:59:23;7.35;;;1.30;;
42200;SDS011;27869;51.442;7.540;2024-02-15T08:01:50;6.50;;;1.20;;
42200;SDS011;27869;51.442;7.540;2024-02-15T08:04:17;8.15;;;1.40;;
42200;SDS011;27869;51.442;7.540;2024-02-15T08:06:46;6.70;;;1.25;;
42200;SDS011;27869;51.442;7.540;2024-02-15T08:09:15;3.95;;;1.25;;
42200;SDS011;27869;51.442;7.540;2024-02-15T08:11:45;7.30;;;1.40;;
42200;SDS011;27869;51.442;7.540;2024-02-15T08:14:11;4.38;;;1.25;;
42200;SDS011;27869;51.442;7.540;2024-02-15T08:16:38;8.18;;;1.30;;
42200;SDS011;27869;51.442;7.540;2024-02-15T08:19:06;8.00;;;1.30;;
42200;SDS011;27869;51.442;7.540;2024-02-15T08:21:33;9.23;;;1.40;;
42200;SDS011;27869;51.442;7.540;2024-02-15T08:24:02;7.80;;;1.27;;
42200;SDS011;27869;51.442;7.540;2024-02-15T08:26:32;9.65;;;1.73;;
42200;SDS011;27869;51.442;7.540;2024-02-15T08:29:00;7.15;;;1.42;;
42200;SDS011;27869;51.442;7.540;2024-02-15T08:31:28;7.88;;;1.17;;
42200;SDS011;27869;51.442;7.540;2024-02-15T08:33:55;4.20;;;1.13;;
42200;SDS011;27869;51.442;7.540;2024-02-15T08:36:21;8.35;;;1.30;;
42200;SDS011;27869;51.442;7.540;2024-02-15T08:38:48;11.07;;;1.60;;
42200;SDS011;27869;51.442;7.540;2024-02-15T08:41:17;6.68;;;1.00;;
42200;SDS011;27869;51.442;7.540;2024-02-15T08:43:47;6.90;;;1.23;;
42200;SDS011;27869;51.442;7.540;2024-02-15T08:46:14;8.95;;;1.38;;
42200;SDS011;27869;51.442;7.540;2024-02-15T08:48:41;8.43;;;1.38;;
42200;SDS011;27869;51.442;7.540;2024-02-15T08:51:08;5.28;;;1.10;;
42200;SDS011;27869;51.442;7.540;2024-02-15T08:53:35;6.57;;;1.20;;
42200;SDS011;27869;51.442;7.540;2024-02-15T08:56:02;6.15;;;1.30;;
42200;SDS011;27869;51.442;7.540;2024-02-15T08:58:30;5.88;;;1.23;;
42200;SDS011;27869;51.442;7.540;2024-02-15T09:00:58;4.75;;;1.10;;
42200;SDS011;27869;51.442;7.540;2024-02-15T09:03:25;5.55;;;1.15;;
42200;SDS011;27869;51.442;7.540;2024-02-15T09:05:52;5.28;;;1.30;;
42200;SDS011;27869;51.442;7.540;2024-02-15T09:08:19;9.02;;;1.48;;
42200;SDS011;27869;51.442;7.540;2024-02-15T09:10:46;6.13;;;1.00;;
42200;SDS011;27869;51.442;7.540;2024-02-15T09:13:12;5.70;;;1.40;;
42200;SDS011;27869;51.442;7.540;2024-02-15T09:15:39;6.75;;;1.20;;
42200;SDS011;27869;51.442;7.540;2024-02-15T09:18:08;5.20;;;1.20;;
42200;SDS011;27869;51.442;7.540;2024-02-15T09:20:35;5.55;;;1.15;;
42200;SDS011;27869;51.442;7.540;2024-02-15T09:23:05;7.15;;;1.42;;
42200;SDS011;27869;51.442;7.540;2024-02-15T09:25:34;8.52;;;1.30;;
42200;SDS011;27869;51.442;7.540;2024-02-15T09:28:04;6.28;;;1.10;;
42200;SDS011;27869;51.442;7.540;2024-02-15T09:30:31;5.63;;;0.88;;
42200;SDS011;27869;51.442;7.540;2024-02-15T09:33:00;4.90;;;1.10;;
42200;SDS011;27869;51.442;7.540;2024-02-15T09:35:31;5.00;;;0.98;;
42200;SDS011;27869;51.442;7.540;2024-02-15T09:37:58;6.80;;;1.50;;
42200;SDS011;27869;51.442;7.540;2024-02-15T09:40:25;4.38;;;1.00;;
42200;SDS011;27869;51.442;7.540;2024-02-15T09:42:54;7.38;;;1.40;;
42200;SDS011;27869;51.442;7.540;2024-02-15T09:45:21;4.45;;;0.90;;
42200;SDS011;27869;51.442;7.540;2024-02-15T09:47:50;6.35;;;1.08;;
42200;SDS011;27869;51.442;7.540;2024-02-15T09:50:18;6.13;;;1.00;;
42200;SDS011;27869;51.442;7.540;2024-02-15T09:52:49;7.22;;;1.20;;
42200;SDS011;27869;51.442;7.540;2024-02-15T09:55:16;6.45;;;1.10;;
42200;SDS011;27869;51.442;7.540;2024-02-15T09:57:44;6.10;;;0.98;;
42200;SDS011;27869;51.442;7.540;2024-02-15T10:00:12;5.10;;;1.05;;
42200;SDS011;27869;51.442;7.540;2024-02-15T10:02:40;6.40;;;1.27;;
42200;SDS011;27869;51.442;7.540;2024-02-15T10:07:37;5.93;;;1.10;;
42200;SDS011;27869;51.442;7.540;2024-02-15T10:10:15;5.93;;;1.20;;
42200;SDS011;27869;51.442;7.540;2024-02-15T10:12:44;3.45;;;1.05;;
42200;SDS011;27869;51.442;7.540;2024-02-15T10:15:26;5.38;;;1.00;;
42200;SDS011;27869;51.442;7.540;2024-02-15T10:17:55;4.15;;;0.95;;
42200;SDS011;27869;51.442;7.540;2024-02-15T10:20:23;8.73;;;1.33;;
42200;SDS011;27869;51.442;7.540;2024-02-15T10:22:51;2.95;;;0.90;;
42200;SDS011;27869;51.442;7.540;2024-02-15T10:25:21;5.60;;;1.10;;
42200;SDS011;27869;51.442;7.540;2024-02-15T10:27:48;5.78;;;1.13;;
42200;SDS011;27869;51.442;7.540;2024-02-15T10:30:16;6.13;;;1.08;;
42200;SDS011;27869;51.442;7.540;2024-02-15T10:32:44;6.85;;;1.00;;
42200;SDS011;27869;51.442;7.540;2024-02-15T10:35:18;5.70;;;1.00;;
42200;SDS011;27869;51.442;7.540;2024-02-15T10:37:46;7.45;;;1.25;;
42200;SDS011;27869;51.442;7.540;2024-02-15T10:40:17;3.70;;;0.95;;
42200;SDS011;27869;51.442;7.540;2024-02-15T10:42:46;6.85;;;1.00;;
42200;SDS011;27869;51.442;7.540;2024-02-15T10:45:14;8.85;;;1.45;;
42200;SDS011;27869;51.442;7.540;2024-02-15T10:47:43;7.25;;;1.15;;
42200;SDS011;27869;51.442;7.540;2024-02-15T10:50:12;7.68;;;1.20;;
42200;SDS011;27869;51.442;7.540;2024-02-15T10:52:43;6.00;;;1.10;;
42200;SDS011;27869;51.442;7.540;2024-02-15T10:55:15;7.18;;;1.27;;
42200;SDS011;27869;51.442;7.540;2024-02-15T10:57:53;8.43;;;1.13;;
42200;SDS011;27869;51.442;7.540;2024-02-15T11:00:24;5.10;;;1.00;;
42200;SDS011;27869;51.442;7.540;2024-02-15T11:02:58;4.18;;;0.90;;
42200;SDS011;27869;51.442;7.540;2024-02-15T11:05:30;6.00;;;1.30;;
42200;SDS011;27869;51.442;7.540;2024-02-15T11:08:01;8.52;;;1.63;;
42200;SDS011;27869;51.442;7.540;2024-02-15T11:10:29;6.82;;;1.20;;
42200;SDS011;27869;51.442;7.540;2024-02-15T11:12:58;3.33;;;0.88;;
42200;SDS011;27869;51.442;7.540;2024-02-15T11:15:41;4.13;;;1.10;;
42200;SDS011;27869;51.442;7.540;2024-02-15T11:18:25;5.75;;;1.15;;
42200;SDS011;27869;51.442;7.540;2024-02-15T11:21:09;5.95;;;1.40;;
42200;SDS011;27869;51.442;7.540;2024-02-15T11:23:36;7.35;;;1.10;;
42200;SDS011;27869;51.442;7.540;2024-02-15T11:26:08;7.55;;;1.20;;
42200;SDS011;27869;51.442;7.540;2024-02-15T11:28:42;2.90;;;0.80;;
42200;SDS011;27869;51.442;7.540;2024-02-15T11:40:18;4.72;;;0.80;;
42200;SDS011;27869;51.442;7.540;2024-02-15T11:42:48;6.05;;;1.02;;
42200;SDS011;27869;51.442;7.540;2024-02-15T11:45:17;5.32;;;1.00;;
42200;SDS011;27869;51.442;7.540;2024-02-15T11:47:47;6.20;;;1.25;;
42200;SDS011;27869;51.442;7.540;2024-02-15T11:50:15;5.15;;;1.10;;
42200;SDS011;27869;51.442;7.540;2024-02-15T11:52:43;5.70;;;1.10;;
42200;SDS011;27869;51.442;7.540;2024-02-15T11:55:14;4.18;;;0.95;;
42200;SDS011;27869;51.442;7.540;2024-02-15T11:57:53;4.15;;;0.80;;
42200;SDS011;27869;51.442;7.540;2024-02-15T12:00:29;5.05;;;0.85;;
42200;SDS011;27869;51.442;7.540;2024-02-15T12:03:14;4.38;;;1.10;;
42200;SDS011;27869;51.442;7.540;2024-02-15T12:05:59;4.78;;;1.02;;
42200;SDS011;27869;51.442;7.540;2024-02-15T12:08:50;6.07;;;1.08;;
42200;SDS011;27869;51.442;7.540;2024-02-15T12:11:37;6.03;;;1.13;;
42200;SDS011;27869;51.442;7.540;2024-02-15T12:14:22;6.93;;;1.20;;
42200;SDS011;27869;51.442;7.540;2024-02-15T12:17:08;7.25;;;1.00;;
42200;SDS011;27869;51.442;7.540;2024-02-15T12:19:54;5.45;;;0.85;;
42200;SDS011;27869;51.442;7.540;2024-02-15T12:22:22;6.38;;;1.08;;
42200;SDS011;27869;51.442;7.540;2024-02-15T12:24:54;5.50;;;0.90;;
42200;SDS011;27869;51.442;7.540;2024-02-15T12:27:22;5.25;;;1.05;;
42200;SDS011;27869;51.442;7.540;2024-02-15T12:29:52;6.13;;;1.08;;
42200;SDS011;27869;51.442;7.540;2024-02-15T12:32:24;6.47;;;1.13;;
42200;SDS011;27869;51.442;7.540;2024-02-15T12:34:52;8.32;;;1.02;;
42200;SDS011;27869;51.442;7.540;2024-02-15T12:37:35;7.55;;;1.13;;
42200;SDS011;27869;51.442;7.540;2024-02-15T12:40:09;3.92;;;0.90;;
42200;SDS011;27869;51.442;7.540;2024-02-15T12:42:40;3.40;;;0.80;;
42200;SDS011;27869;51.442;7.540;2024-02-15T12:45:14;4.97;;;1.00;;
42200;SDS011;27869;51.442;7.540;2024-02-15T12:47:46;4.45;;;0.80;;
42200;SDS011;27869;51.442;7.540;2024-02-15T12:50:15;5.68;;;1.05;;
42200;SDS011;27869;51.442;7.540;2024-02-15T12:52:42;7.50;;;1.27;;
42200;SDS011;27869;51.442;7.540;2024-02-15T12:55:13;6.93;;;1.10;;
42200;SDS011;27869;51.442;7.540;2024-02-15T12:57:41;7.50;;;1.10;;
42200;SDS011;27869;51.442;7.540;2024-02-15T13:00:11;8.45;;;1.35;;
42200;SDS011;27869;51.442;7.540;2024-02-15T13:02:43;4.25;;;0.80;;
42200;SDS011;27869;51.442;7.540;2024-02-15T13:05:11;5.25;;;1.10;;
42200;SDS011;27869;51.442;7.540;2024-02-15T13:07:39;4.30;;;0.82;;
42200;SDS011;27869;51.442;7.540;2024-02-15T13:10:06;5.03;;;0.90;;
42200;SDS011;27869;51.442;7.540;2024-02-15T13:12:34;4.55;;;1.05;;
42200;SDS011;27869;51.442;7.540;2024-02-15T13:15:03;5.78;;;0.88;;
42200;SDS011;27869;51.442;7.540;2024-02-15T13:17:32;5.50;;;1.20;;
42200;SDS011;27869;51.442;7.540;2024-02-15T13:19:59;5.95;;;1.25;;
42200;SDS011;27869;51.442;7.540;2024-02-15T13:22:31;5.63;;;0.90;;
42200;SDS011;27869;51.442;7.540;2024-02-15T13:24:59;5.68;;;1.00;;
42200;SDS011;27869;51.442;7.540;2024-02-15T13:27:28;7.35;;;0.80;;
42200;SDS011;27869;51.442;7.540;2024-02-15T13:29:55;6.03;;;1.33;;
42200;SDS011;27869;51.442;7.540;2024-02-15T13:32:22;4.97;;;1.00;;
42200;SDS011;27869;51.442;7.540;2024-02-15T13:34:49;3.45;;;0.93;;
42200;SDS011;27869;51.442;7.540;2024-02-15T13:37:18;3.97;;;1.00;;
42200;SDS011;27869;51.442;7.540;2024-02-15T13:39:48;5.88;;;1.10;;
42200;SDS011;27869;51.442;7.540;2024-02-15T13:42:16;5.57;;;1.02;;
42200;SDS011;27869;51.442;7.540;2024-02-15T13:44:44;5.68;;;1.00;;
42200;SDS011;27869;51.442;7.540;2024-02-15T13:47:11;6.05;;;1.10;;
42200;SDS011;27869;51.442;7.540;2024-02-15T13:49:38;3.90;;;1.20;;
42200;SDS011;27869;51.442;7.540;2024-02-15T13:52:05;4.97;;;1.00;;
42200;SDS011;27869;51.442;7.540;2024-02-15T13:54:32;7.38;;;1.13;;
42200;SDS011;27869;51.442;7.540;2024-02-15T13:57:01;4.93;;;1.20;;
42200;SDS011;27869;51.442;7.540;2024-02-15T13:59:28;8.52;;;1.00;;
42200;SDS011;27869;51.442;7.540;2024-02-15T14:01:55;5.93;;;1.20;;
42200;SDS011;27869;51.442;7.540;2024-02-15T14:04:23;6.05;;;1.38;;
42200;SDS011;27869;51.442;7.540;2024-02-15T14:06:53;8.43;;;1.40;;
42200;SDS011;27869;51.442;7.540;2024-02-15T14:09:21;5.82;;;1.20;;
42200;SDS011;27869;51.442;7.540;2024-02-15T14:11:51;7.88;;;1.10;;
42200;SDS011;27869;51.442;7.540;2024-02-15T14:14:20;5.78;;;1.20;;
42200;SDS011;27869;51.442;7.540;2024-02-15T14:16:47;6.30;;;1.20;;
42200;SDS011;27869;51.442;7.540;2024-02-15T14:19:14;7.00;;;1.05;;
42200;SDS011;27869;51.442;7.540;2024-02-15T14:21:41;5.72;;;1.15;;
42200;SDS011;27869;51.442;7.540;2024-02-15T14:24:10;4.30;;;1.08;;
42200;SDS011;27869;51.442;7.540;2024-02-15T14:26:37;4.60;;;1.05;;
42200;SDS011;27869;51.442;7.540;2024-02-15T14:29:04;6.75;;;1.17;;
42200;SDS011;27869;51.442;7.540;2024-02-15T14:31:32;7.28;;;1.13;;
42200;SDS011;27869;51.442;7.540;2024-02-15T14:34:16;6.90;;;1.10;;
42200;SDS011;27869;51.442;7.540;2024-02-15T14:36:45;3.22;;;1.08;;
42200;SDS011;27869;51.442;7.540;2024-02-15T14:39:12;7.30;;;0.90;;
42200;SDS011;27869;51.442;7.540;2024-02-15T14:41:40;7.28;;;1.15;;
42200;SDS011;27869;51.442;7.540;2024-02-15T14:44:08;7.90;;;1.30;;
42200;SDS011;27869;51.442;7.540;2024-02-15T14:46:39;7.03;;;1.13;;
42200;SDS011;27869;51.442;7.540;2024-02-15T14:49:05;8.07;;;1.20;;
42200;SDS011;27869;51.442;7.540;2024-02-15T14:51:33;6.60;;;1.30;;
42200;SDS011;27869;51.442;7.540;2024-02-15T14:54:02;7.60;;;1.65;;
42200;SDS011;27869;51.442;7.540;2024-02-15T14:56:29;7.15;;;1.13;;
42200;SDS011;27869;51.442;7.540;2024-02-15T14:58:58;5.00;;;1.30;;
42200;SDS011;27869;51.442;7.540;2024-02-15T15:01:25;6.40;;;1.30;;
42200;SDS011;27869;51.442;7.540;2024-02-15T15:03:56;6.30;;;1.25;;
42200;SDS011;27869;51.442;7.540;2024-02-15T15:06:24;7.05;;;1.20;;
42200;SDS011;27869;51.442;7.540;2024-02-15T15:09:08;7.32;;;1.08;;
42200;SDS011;27869;51.442;7.540;2024-02-15T15:11:53;6.53;;;1.27;;
42200;SDS011;27869;51.442;7.540;2024-02-15T15:14:38;5.30;;;1.10;;